sensor_id;sensor_type;location;lat;lon;timestamp;temperature;humidity
5605;DHT22;9297;47.258;11.362;2023-12-20T02:30:35;0.70;99.30
5605;DHT22;9297;47.258;11.362;2023-12-20T02:33:04;0.80;98.50
5605;DHT22;9297;47.258;11.362;2023-12-20T02:35:34;0.90;98.10
5605;DHT22;9297;47.258;11.362;2023-12-20T02:38:01;0.90;98.20
5605;DHT22;9297;47.258;11.362;2023-12-20T02:40:28;1.00;97.80
5605;DHT22;9297;47.258;11.362;2023-12-20T02:42:55;1.00;97.70
5605;DHT22;9297;47.258;11.362;2023-12-20T02:45:22;1.00;96.60
5605;DHT22;9297;47.258;11.362;2023-12-20T02:47:50;1.00;96.60
5605;DHT22;9297;47.258;11.362;2023-12-20T02:50:17;1.10;96.40
5605;DHT22;9297;47.258;11.362;2023-12-20T02:52:45;1.00;96.50
5605;DHT22;9297;47.258;11.362;2023-12-20T02:55:12;1.00;96.90
5605;DHT22;9297;47.258;11.362;2023-12-20T02:57:39;1.00;97.00
5605;DHT22;9297;47.258;11.362;2023-12-20T03:00:08;1.00;97.80
5605;DHT22;9297;47.258;11.362;2023-12-20T03:02:35;1.10;98.30
5605;DHT22;9297;47.258;11.362;2023-12-20T03:05:04;1.10;98.40
5605;DHT22;9297;47.258;11.362;2023-12-20T03:07:31;1.10;98.20
5605;DHT22;9297;47.258;11.362;2023-12-20T03:09:58;1.20;98.30
5605;DHT22;9297;47.258;11.362;2023-12-20T03:12:45;1.10;98.40
5605;DHT22;9297;47.258;11.362;2023-12-20T03:15:12;1.20;98.90
5605;DHT22;9297;47.258;11.362;2023-12-20T03:17:39;1.10;98.80
5605;DHT22;9297;47.258;11.362;2023-12-20T03:20:08;1.10;99.70
5605;DHT22;9297;47.258;11.362;2023-12-20T03:22:35;1.10;99.40
5605;DHT22;9297;47.258;11.362;2023-12-20T03:25:02;1.10;99.00
5605;DHT22;9297;47.258;11.362;2023-12-20T03:27:30;0.90;99.90
5605;DHT22;9297;47.258;11.362;2023-12-20T03:29:57;1.00;99.90
5605;DHT22;9297;47.258;11.362;2023-12-20T03:32:24;1.10;99.90
5605;DHT22;9297;47.258;11.362;2023-12-20T03:34:51;1.00;99.90
5605;DHT22;9297;47.258;11.362;2023-12-20T03:37:19;1.00;99.90
5605;DHT22;9297;47.258;11.362;2023-12-20T03:39:46;1.10;99.90
5605;DHT22;9297;47.258;11.362;2023-12-20T03:42:13;1.20;99.90
5605;DHT22;9297;47.258;11.362;2023-12-20T03:44:40;1.30;99.90
5605;DHT22;9297;47.258;11.362;2023-12-20T03:47:08;1.40;99.90
5605;DHT22;9297;47.258;11.362;2023-12-20T03:49:34;1.40;99.80
5605;DHT22;9297;47.258;11.362;2023-12-20T03:52:02;1.50;99.40
5605;DHT22;9297;47.258;11.362;2023-12-20T03:54:30;1.50;99.20
5605;DHT22;9297;47.258;11.362;2023-12-20T03:56:57;1.30;99.20
5605;DHT22;9297;47.258;11.362;2023-12-20T03:59:24;1.40;99.90
5605;DHT22;9297;47.258;11.362;2023-12-20T04:01:51;1.50;99.80
5605;DHT22;9297;47.258;11.362;2023-12-20T04:04:18;1.50;99.50
5605;DHT22;9297;47.258;11.362;2023-12-20T04:06:45;1.50;99.90
5605;DHT22;9297;47.258;11.362;2023-12-20T04:09:12;1.50;99.90
5605;DHT22;9297;47.258;11.362;2023-12-20T04:11:41;1.50;99.70
5605;DHT22;9297;47.258;11.362;2023-12-20T04:14:08;1.50;99.90
5605;DHT22;9297;47.258;11.362;2023-12-20T04:16:34;1.50;99.90
5605;DHT22;9297;47.258;11.362;2023-12-20T04:19:01;1.50;99.90
5605;DHT22;9297;47.258;11.362;2023-12-20T04:21:28;1.50;99.90
5605;DHT22;9297;47.258;11.362;2023-12-20T04:23:56;1.60;99.80
5605;DHT22;9297;47.258;11.362;2023-12-20T04:26:23;1.60;99.90
5605;DHT22;9297;47.258;11.362;2023-12-20T04:28:51;1.70;99.70
5605;DHT22;9297;47.258;11.362;2023-12-20T04:31:21;1.70;99.90
5605;DHT22;9297;47.258;11.362;2023-12-20T04:33:48;1.70;99.80
5605;DHT22;9297;47.258;11.362;2023-12-20T04:36:15;1.80;99.60
5605;DHT22;9297;47.258;11.362;2023-12-20T04:38:42;1.80;99.60
5605;DHT22;9297;47.258;11.362;2023-12-20T04:41:09;1.70;99.70
5605;DHT22;9297;47.258;11.362;2023-12-20T04:43:36;1.70;99.90
5605;DHT22;9297;47.258;11.362;2023-12-20T04:46:04;1.60;99.90
5605;DHT22;9297;47.258;11.362;2023-12-20T04:48:31;1.60;99.90
5605;DHT22;9297;47.258;11.362;2023-12-20T04:50:58;1.60;99.90
5605;DHT22;9297;47.258;11.362;2023-12-20T04:53:25;1.70;99.90
5605;DHT22;9297;47.258;11.362;2023-12-20T04:55:52;1.80;99.90
5605;DHT22;9297;47.258;11.362;2023-12-20T04:58:19;1.80;99.80
5605;DHT22;9297;47.258;11.362;2023-12-20T05:00:46;1.90;99.20
5605;DHT22;9297;47.258;11.362;2023-12-20T05:03:14;1.90;99.10
5605;DHT22;9297;47.258;11.362;2023-12-20T05:05:41;1.90;99.40
5605;DHT22;9297;47.258;11.362;2023-12-20T05:08:08;2.00;99.00
5605;DHT22;9297;47.258;11.362;2023-12-20T05:10:35;2.00;99.30
5605;DHT22;9297;47.258;11.362;2023-12-20T05:13:02;2.00;98.60
5605;DHT22;9297;47.258;11.362;2023-12-20T05:15:29;2.00;98.10
5605;DHT22;9297;47.258;11.362;2023-12-20T05:17:56;2.10;98.40
5605;DHT22;9297;47.258;11.362;2023-12-20T05:20:25;2.00;97.90
5605;DHT22;9297;47.258;11.362;2023-12-20T05:22:52;2.10;98.00
5605;DHT22;9297;47.258;11.362;2023-12-20T05:25:19;2.10;97.70
5605;DHT22;9297;47.258;11.362;2023-12-20T05:27:46;2.10;97.90
5605;DHT22;9297;47.258;11.362;2023-12-20T05:30:13;2.00;97.60
5605;DHT22;9297;47.258;11.362;2023-12-20T05:32:41;2.00;98.80
5605;DHT22;9297;47.258;11.362;2023-12-20T05:35:08;2.00;98.70
5605;DHT22;9297;47.258;11.362;2023-12-20T05:37:36;2.00;98.50
5605;DHT22;9297;47.258;11.362;2023-12-20T05:40:04;2.10;98.10
5605;DHT22;9297;47.258;11.362;2023-12-20T05:42:31;1.80;97.60
5605;DHT22;9297;47.258;11.362;2023-12-20T05:44:58;1.90;98.70
5605;DHT22;9297;47.258;11.362;2023-12-20T05:47:25;1.80;98.50
5605;DHT22;9297;47.258;11.362;2023-12-20T05:49:53;1.80;98.80
5605;DHT22;9297;47.258;11.362;2023-12-20T05:52:20;1.80;99.20
5605;DHT22;9297;47.258;11.362;2023-12-20T05:54:48;1.80;99.70
5605;DHT22;9297;47.258;11.362;2023-12-20T05:57:15;1.80;99.40
5605;DHT22;9297;47.258;11.362;2023-12-20T05:59:42;1.90;99.20
5605;DHT22;9297;47.258;11.362;2023-12-20T06:02:09;2.00;99.20
5605;DHT22;9297;47.258;11.362;2023-12-20T06:04:36;2.00;99.00
5605;DHT22;9297;47.258;11.362;2023-12-20T06:07:03;4.40;99.90
5605;DHT22;9297;47.258;11.362;2023-12-20T06:09:30;6.40;99.90
5605;DHT22;9297;47.258;11.362;2023-12-20T06:11:59;8.00;99.90
5605;DHT22;9297;47.258;11.362;2023-12-20T06:14:26;9.50;99.90
5605;DHT22;9297;47.258;11.362;2023-12-20T06:16:53;8.20;99.90
5605;DHT22;9297;47.258;11.362;2023-12-20T06:19:20;7.40;84.80
5605;DHT22;9297;47.258;11.362;2023-12-20T06:21:47;6.00;79.50
5605;DHT22;9297;47.258;11.362;2023-12-20T06:24:17;5.30;82.10
5605;DHT22;9297;47.258;11.362;2023-12-20T06:26:52;4.40;84.90
5605;DHT22;9297;47.258;11.362;2023-12-20T06:29:21;4.00;87.30
5605;DHT22;9297;47.258;11.362;2023-12-20T06:31:48;3.60;91.70
5605;DHT22;9297;47.258;11.362;2023-12-20T06:34:18;3.20;91.10
5605;DHT22;9297;47.258;11.362;2023-12-20T06:36:45;3.10;94.20
5605;DHT22;9297;47.258;11.362;2023-12-20T06:39:14;3.20;95.30
5605;DHT22;9297;47.258;11.362;2023-12-20T06:41:41;2.90;93.90
5605;DHT22;9297;47.258;11.362;2023-12-20T06:44:08;2.90;95.90
5605;DHT22;9297;47.258;11.362;2023-12-20T06:46:36;3.00;95.30
5605;DHT22;9297;47.258;11.362;2023-12-20T06:49:03;2.90;95.50
5605;DHT22;9297;47.258;11.362;2023-12-20T06:51:30;2.90;96.60
5605;DHT22;9297;47.258;11.362;2023-12-20T06:53:57;2.90;97.00
5605;DHT22;9297;47.258;11.362;2023-12-20T06:56:24;2.80;96.10
5605;DHT22;9297;47.258;11.362;2023-12-20T06:58:51;2.90;99.90
5605;DHT22;9297;47.258;11.362;2023-12-20T07:01:18;2.80;99.90
5605;DHT22;9297;47.258;11.362;2023-12-20T07:03:47;3.00;99.90
5605;DHT22;9297;47.258;11.362;2023-12-20T07:06:14;3.00;99.80
5605;DHT22;9297;47.258;11.362;2023-12-20T07:08:41;2.80;97.80
5605;DHT22;9297;47.258;11.362;2023-12-20T07:11:08;2.80;99.50
5605;DHT22;9297;47.258;11.362;2023-12-20T07:13:35;2.80;98.40
5605;DHT22;9297;47.258;11.362;2023-12-20T07:16:03;2.90;98.90
5605;DHT22;9297;47.258;11.362;2023-12-20T07:18:30;2.80;97.60
5605;DHT22;9297;47.258;11.362;2023-12-20T07:20:58;2.80;97.70
5605;DHT22;9297;47.258;11.362;2023-12-20T07:23:25;2.80;97.30
5605;DHT22;9297;47.258;11.362;2023-12-20T07:25:52;2.70;96.60
5605;DHT22;9297;47.258;11.362;2023-12-20T07:28:19;2.70;96.80
5605;DHT22;9297;47.258;11.362;2023-12-20T07:30:46;2.60;97.10
5605;DHT22;9297;47.258;11.362;2023-12-20T07:33:13;2.60;97.80
5605;DHT22;9297;47.258;11.362;2023-12-20T07:35:40;2.60;98.30
5605;DHT22;9297;47.258;11.362;2023-12-20T07:38:08;2.60;97.20
5605;DHT22;9297;47.258;11.362;2023-12-20T07:40:35;2.60;97.30
5605;DHT22;9297;47.258;11.362;2023-12-20T07:43:03;2.60;97.10
5605;DHT22;9297;47.258;11.362;2023-12-20T07:45:30;2.60;97.40
5605;DHT22;9297;47.258;11.362;2023-12-20T07:47:57;2.50;98.90
5605;DHT22;9297;47.258;11.362;2023-12-20T07:50:24;2.60;98.90
5605;DHT22;9297;47.258;11.362;2023-12-20T07:52:51;2.40;99.20
5605;DHT22;9297;47.258;11.362;2023-12-20T07:55:19;2.60;99.70
5605;DHT22;9297;47.258;11.362;2023-12-20T07:57:46;2.60;99.00
5605;DHT22;9297;47.258;11.362;2023-12-20T08:00:14;2.70;98.70
5605;DHT22;9297;47.258;11.362;2023-12-20T08:02:41;2.70;98.50
5605;DHT22;9297;47.258;11.362;2023-12-20T08:05:11;2.70;98.40
5605;DHT22;9297;47.258;11.362;2023-12-20T08:07:38;2.70;98.20
5605;DHT22;9297;47.258;11.362;2023-12-20T08:10:06;2.70;98.90
5605;DHT22;9297;47.258;11.362;2023-12-20T08:12:35;2.70;97.90
5605;DHT22;9297;47.258;11.362;2023-12-20T08:15:02;2.50;99.90
5605;DHT22;9297;47.258;11.362;2023-12-20T08:17:29;2.60;99.90
5605;DHT22;9297;47.258;11.362;2023-12-20T08:19:56;2.70;98.70
5605;DHT22;9297;47.258;11.362;2023-12-20T08:22:23;2.70;99.30
5605;DHT22;9297;47.258;11.362;2023-12-20T08:24:51;2.90;98.50
5605;DHT22;9297;47.258;11.362;2023-12-20T08:27:18;2.90;98.00
5605;DHT22;9297;47.258;11.362;2023-12-20T08:29:46;3.00;97.90
5605;DHT22;9297;47.258;11.362;2023-12-20T08:32:13;3.00;97.30
5605;DHT22;9297;47.258;11.362;2023-12-20T08:34:40;3.10;96.00
5605;DHT22;9297;47.258;11.362;2023-12-20T08:37:07;2.90;97.30
5605;DHT22;9297;47.258;11.362;2023-12-20T08:39:34;3.00;96.50
5605;DHT22;9297;47.258;11.362;2023-12-20T08:42:01;3.00;95.80
5605;DHT22;9297;47.258;11.362;2023-12-20T08:44:28;3.10;95.70
5605;DHT22;9297;47.258;11.362;2023-12-20T08:46:56;3.00;95.50
5605;DHT22;9297;47.258;11.362;2023-12-20T08:49:23;2.80;97.90
5605;DHT22;9297;47.258;11.362;2023-12-20T08:51:50;2.60;99.90
5605;DHT22;9297;47.258;11.362;2023-12-20T08:54:17;2.80;99.90
5605;DHT22;9297;47.258;11.362;2023-12-20T08:56:44;2.80;99.80
5605;DHT22;9297;47.258;11.362;2023-12-20T08:59:11;2.80;99.90
5605;DHT22;9297;47.258;11.362;2023-12-20T09:01:38;2.90;99.80
5605;DHT22;9297;47.258;11.362;2023-12-20T09:04:07;3.00;99.30
5605;DHT22;9297;47.258;11.362;2023-12-20T09:06:34;3.10;97.10
5605;DHT22;9297;47.258;11.362;2023-12-20T09:09:01;2.90;97.80
5605;DHT22;9297;47.258;11.362;2023-12-20T09:11:28;2.90;98.20
5605;DHT22;9297;47.258;11.362;2023-12-20T09:13:55;3.00;97.60
5605;DHT22;9297;47.258;11.362;2023-12-20T09:16:22;2.90;97.70
5605;DHT22;9297;47.258;11.362;2023-12-20T09:18:49;2.90;97.90
5605;DHT22;9297;47.258;11.362;2023-12-20T09:21:17;2.90;97.60
5605;DHT22;9297;47.258;11.362;2023-12-20T09:23:44;2.90;97.80
5605;DHT22;9297;47.258;11.362;2023-12-20T09:26:11;3.00;98.20
5605;DHT22;9297;47.258;11.362;2023-12-20T09:28:38;3.00;97.00
5605;DHT22;9297;47.258;11.362;2023-12-20T09:31:05;3.00;97.30
5605;DHT22;9297;47.258;11.362;2023-12-20T09:33:33;3.20;96.80
5605;DHT22;9297;47.258;11.362;2023-12-20T09:36:00;3.10;95.60
5605;DHT22;9297;47.258;11.362;2023-12-20T09:38:29;3.20;95.70
5605;DHT22;9297;47.258;11.362;2023-12-20T09:40:56;3.20;95.50
5605;DHT22;9297;47.258;11.362;2023-12-20T09:43:24;3.20;95.50
5605;DHT22;9297;47.258;11.362;2023-12-20T09:45:53;3.10;96.50
5605;DHT22;9297;47.258;11.362;2023-12-20T09:48:21;3.20;97.20
5605;DHT22;9297;47.258;11.362;2023-12-20T09:50:48;3.20;95.80
5605;DHT22;9297;47.258;11.362;2023-12-20T09:53:19;3.30;95.00
5605;DHT22;9297;47.258;11.362;2023-12-20T09:55:49;3.30;94.20
5605;DHT22;9297;47.258;11.362;2023-12-20T09:58:16;3.40;95.00
5605;DHT22;9297;47.258;11.362;2023-12-20T10:00:43;3.30;95.10
5605;DHT22;9297;47.258;11.362;2023-12-20T10:03:11;3.40;95.70
5605;DHT22;9297;47.258;11.362;2023-12-20T10:05:43;3.40;96.10
5605;DHT22;9297;47.258;11.362;2023-12-20T10:08:11;3.40;95.50
5605;DHT22;9297;47.258;11.362;2023-12-20T10:10:38;3.50;94.00
5605;DHT22;9297;47.258;11.362;2023-12-20T10:13:15;3.60;94.20
5605;DHT22;9297;47.258;11.362;2023-12-20T10:15:42;3.60;93.80
5605;DHT22;9297;47.258;11.362;2023-12-20T10:18:11;3.60;93.30
5605;DHT22;9297;47.258;11.362;2023-12-20T10:20:40;3.60;93.30
5605;DHT22;9297;47.258;11.362;2023-12-20T10:23:08;3.60;92.90
5605;DHT22;9297;47.258;11.362;2023-12-20T10:25:35;3.60;92.40
5605;DHT22;9297;47.258;11.362;2023-12-20T10:28:12;3.70;92.10
5605;DHT22;9297;47.258;11.362;2023-12-20T10:30:42;3.60;90.60
5605;DHT22;9297;47.258;11.362;2023-12-20T10:33:10;3.50;91.90
5605;DHT22;9297;47.258;11.362;2023-12-20T10:35:39;3.40;95.00
5605;DHT22;9297;47.258;11.362;2023-12-20T10:38:11;3.40;94.50
5605;DHT22;9297;47.258;11.362;2023-12-20T10:40:39;3.50;95.50
5605;DHT22;9297;47.258;11.362;2023-12-20T10:43:06;3.50;94.80
5605;DHT22;9297;47.258;11.362;2023-12-20T10:45:34;3.70;95.10
5605;DHT22;9297;47.258;11.362;2023-12-20T10:48:04;3.90;93.40
5605;DHT22;9297;47.258;11.362;2023-12-20T10:50:31;4.00;92.10
5605;DHT22;9297;47.258;11.362;2023-12-20T10:52:59;4.10;92.60
5605;DHT22;9297;47.258;11.362;2023-12-20T10:55:28;4.30;91.30
5605;DHT22;9297;47.258;11.362;2023-12-20T10:58:00;4.20;90.60
5605;DHT22;9297;47.258;11.362;2023-12-20T11:00:29;4.30;89.70
5605;DHT22;9297;47.258;11.362;2023-12-20T11:03:00;4.20;89.10
5605;DHT22;9297;47.258;11.362;2023-12-20T11:05:36;4.20;88.50
5605;DHT22;9297;47.258;11.362;2023-12-20T11:08:10;4.20;88.80
5605;DHT22;9297;47.258;11.362;2023-12-20T11:10:43;4.30;88.10
5605;DHT22;9297;47.258;11.362;2023-12-20T11:13:17;4.20;90.20
5605;DHT22;9297;47.258;11.362;2023-12-20T11:15:47;4.20;91.40
5605;DHT22;9297;47.258;11.362;2023-12-20T11:18:15;4.30;89.80
5605;DHT22;9297;47.258;11.362;2023-12-20T11:20:43;4.50;88.60
5605;DHT22;9297;47.258;11.362;2023-12-20T11:23:10;4.50;89.50
5605;DHT22;9297;47.258;11.362;2023-12-20T11:25:48;4.60;86.90
5605;DHT22;9297;47.258;11.362;2023-12-20T11:28:15;4.70;85.90
5605;DHT22;9297;47.258;11.362;2023-12-20T11:30:45;4.70;85.80
5605;DHT22;9297;47.258;11.362;2023-12-20T11:33:13;4.70;85.10
5605;DHT22;9297;47.258;11.362;2023-12-20T11:35:40;4.80;84.90
5605;DHT22;9297;47.258;11.362;2023-12-20T11:38:13;4.70;85.50
5605;DHT22;9297;47.258;11.362;2023-12-20T11:40:41;4.70;86.50
5605;DHT22;9297;47.258;11.362;2023-12-20T11:43:09;4.70;86.10
5605;DHT22;9297;47.258;11.362;2023-12-20T11:45:36;4.60;86.40
5605;DHT22;9297;47.258;11.362;2023-12-20T11:48:03;4.70;86.40
5605;DHT22;9297;47.258;11.362;2023-12-20T11:50:30;4.70;86.10
5605;DHT22;9297;47.258;11.362;2023-12-20T11:52:58;4.60;86.20
5605;DHT22;9297;47.258;11.362;2023-12-20T11:55:26;4.60;86.90
5605;DHT22;9297;47.258;11.362;2023-12-20T11:57:53;4.50;87.40
5605;DHT22;9297;47.258;11.362;2023-12-20T12:00:20;4.50;87.80
5605;DHT22;9297;47.258;11.362;2023-12-20T12:02:58;4.30;87.20
5605;DHT22;9297;47.258;11.362;2023-12-20T12:05:25;4.30;87.70
5605;DHT22;9297;47.258;11.362;2023-12-20T12:07:52;4.30;88.20
5605;DHT22;9297;47.258;11.362;2023-12-20T12:10:19;4.30;88.70
5605;DHT22;9297;47.258;11.362;2023-12-20T12:12:48;4.30;88.70
5605;DHT22;9297;47.258;11.362;2023-12-20T12:15:15;4.40;89.00
5605;DHT22;9297;47.258;11.362;2023-12-20T12:17:42;4.40;88.60
5605;DHT22;9297;47.258;11.362;2023-12-20T12:20:10;4.40;88.70
5605;DHT22;9297;47.258;11.362;2023-12-20T12:22:37;4.50;88.50
5605;DHT22;9297;47.258;11.362;2023-12-20T12:25:11;4.40;87.40
5605;DHT22;9297;47.258;11.362;2023-12-20T12:27:40;4.50;88.30
5605;DHT22;9297;47.258;11.362;2023-12-20T12:30:09;4.50;88.40
5605;DHT22;9297;47.258;11.362;2023-12-20T12:32:37;4.50;88.90
5605;DHT22;9297;47.258;11.362;2023-12-20T12:35:05;4.60;89.30
5605;DHT22;9297;47.258;11.362;2023-12-20T12:37:34;4.50;88.00
5605;DHT22;9297;47.258;11.362;2023-12-20T12:40:01;4.50;88.40
5605;DHT22;9297;47.258;11.362;2023-12-20T12:42:30;4.40;87.80
5605;DHT22;9297;47.258;11.362;2023-12-20T12:44:57;4.40;87.70
5605;DHT22;9297;47.258;11.362;2023-12-20T12:47:25;4.40;88.40
5605;DHT22;9297;47.258;11.362;2023-12-20T12:49:52;4.50;88.70
5605;DHT22;9297;47.258;11.362;2023-12-20T12:52:20;4.50;87.80
5605;DHT22;9297;47.258;11.362;2023-12-20T12:54:47;4.40;87.90
5605;DHT22;9297;47.258;11.362;2023-12-20T12:57:14;4.40;88.00
5605;DHT22;9297;47.258;11.362;2023-12-20T12:59:41;4.40;88.40
5605;DHT22;9297;47.258;11.362;2023-12-20T13:02:08;4.40;88.90
5605;DHT22;9297;47.258;11.362;2023-12-20T13:04:37;4.50;89.50
5605;DHT22;9297;47.258;11.362;2023-12-20T13:07:04;4.90;89.00
5605;DHT22;9297;47.258;11.362;2023-12-20T13:09:31;5.10;87.20
5605;DHT22;9297;47.258;11.362;2023-12-20T13:11:58;5.00;86.00
5605;DHT22;9297;47.258;11.362;2023-12-20T13:14:25;4.90;87.10
5605;DHT22;9297;47.258;11.362;2023-12-20T13:16:52;4.90;86.60
5605;DHT22;9297;47.258;11.362;2023-12-20T13:19:19;4.80;87.20
5605;DHT22;9297;47.258;11.362;2023-12-20T13:21:48;4.80;88.10
5605;DHT22;9297;47.258;11.362;2023-12-20T13:24:15;4.80;87.80
5605;DHT22;9297;47.258;11.362;2023-12-20T13:26:42;5.00;87.90
5605;DHT22;9297;47.258;11.362;2023-12-20T13:29:09;4.90;87.50
5605;DHT22;9297;47.258;11.362;2023-12-20T13:31:36;5.00;87.60
5605;DHT22;9297;47.258;11.362;2023-12-20T13:34:03;5.00;86.10
5605;DHT22;9297;47.258;11.362;2023-12-20T13:36:30;5.00;86.40
5605;DHT22;9297;47.258;11.362;2023-12-20T13:38:58;4.90;86.50
5605;DHT22;9297;47.258;11.362;2023-12-20T13:41:25;4.90;87.60
5605;DHT22;9297;47.258;11.362;2023-12-20T13:43:52;4.80;87.20
5605;DHT22;9297;47.258;11.362;2023-12-20T13:46:19;4.80;87.70
5605;DHT22;9297;47.258;11.362;2023-12-20T13:48:46;4.80;88.80
5605;DHT22;9297;47.258;11.362;2023-12-20T13:51:13;4.80;88.70
5605;DHT22;9297;47.258;11.362;2023-12-20T13:53:40;4.80;88.80
5605;DHT22;9297;47.258;11.362;2023-12-20T13:56:09;4.70;88.90
5605;DHT22;9297;47.258;11.362;2023-12-20T13:58:35;4.70;89.30
5605;DHT22;9297;47.258;11.362;2023-12-20T14:01:04;4.60;89.20
5605;DHT22;9297;47.258;11.362;2023-12-20T14:03:31;4.60;89.70
5605;DHT22;9297;47.258;11.362;2023-12-20T14:05:58;4.50;91.00
5605;DHT22;9297;47.258;11.362;2023-12-20T14:08:25;4.50;90.30
5605;DHT22;9297;47.258;11.362;2023-12-20T14:10:52;4.50;90.40
5605;DHT22;9297;47.258;11.362;2023-12-20T14:13:20;4.40;90.60
5605;DHT22;9297;47.258;11.362;2023-12-20T14:15:47;4.30;91.40
5605;DHT22;9297;47.258;11.362;2023-12-20T14:18:14;4.40;91.20
5605;DHT22;9297;47.258;11.362;2023-12-20T14:20:41;4.40;91.20
5605;DHT22;9297;47.258;11.362;2023-12-20T14:23:08;4.30;90.60
5605;DHT22;9297;47.258;11.362;2023-12-20T14:25:35;4.30;91.30
5605;DHT22;9297;47.258;11.362;2023-12-20T14:28:17;4.30;92.60
5605;DHT22;9297;47.258;11.362;2023-12-20T14:30:45;4.30;91.80
5605;DHT22;9297;47.258;11.362;2023-12-20T14:33:12;4.30;92.80
5605;DHT22;9297;47.258;11.362;2023-12-20T14:35:39;4.30;92.70
5605;DHT22;9297;47.258;11.362;2023-12-20T14:38:08;4.30;92.10
5605;DHT22;9297;47.258;11.362;2023-12-20T14:40:35;4.30;92.10
5605;DHT22;9297;47.258;11.362;2023-12-20T14:43:02;4.30;92.90
5605;DHT22;9297;47.258;11.362;2023-12-20T14:45:29;4.20;92.30
5605;DHT22;9297;47.258;11.362;2023-12-20T14:47:58;4.20;92.70
5605;DHT22;9297;47.258;11.362;2023-12-20T14:50:25;4.20;92.70
5605;DHT22;9297;47.258;11.362;2023-12-20T14:52:52;4.20;93.30
5605;DHT22;9297;47.258;11.362;2023-12-20T14:55:19;4.10;93.50
5605;DHT22;9297;47.258;11.362;2023-12-20T14:57:46;4.10;93.80
5605;DHT22;9297;47.258;11.362;2023-12-20T15:00:14;4.10;93.90
5605;DHT22;9297;47.258;11.362;2023-12-20T15:02:41;4.10;93.80
5605;DHT22;9297;47.258;11.362;2023-12-20T15:05:09;4.10;93.80
5605;DHT22;9297;47.258;11.362;2023-12-20T15:07:36;4.00;94.70
5605;DHT22;9297;47.258;11.362;2023-12-20T15:10:04;4.00;93.90
5605;DHT22;9297;47.258;11.362;2023-12-20T15:12:31;3.80;94.90
5605;DHT22;9297;47.258;11.362;2023-12-20T15:14:58;3.80;95.20
5605;DHT22;9297;47.258;11.362;2023-12-20T15:17:25;3.80;95.20
5605;DHT22;9297;47.258;11.362;2023-12-20T15:19:52;3.70;95.10
5605;DHT22;9297;47.258;11.362;2023-12-20T15:22:20;3.70;95.20
5605;DHT22;9297;47.258;11.362;2023-12-20T15:24:47;3.70;95.80
5605;DHT22;9297;47.258;11.362;2023-12-20T15:27:14;3.60;95.70
5605;DHT22;9297;47.258;11.362;2023-12-20T15:29:41;3.60;95.80
5605;DHT22;9297;47.258;11.362;2023-12-20T15:32:09;3.60;96.30
5605;DHT22;9297;47.258;11.362;2023-12-20T15:34:36;3.60;95.90
5605;DHT22;9297;47.258;11.362;2023-12-20T15:37:03;3.40;96.60
5605;DHT22;9297;47.258;11.362;2023-12-20T15:39:32;3.50;97.40
5605;DHT22;9297;47.258;11.362;2023-12-20T15:41:59;3.50;97.20
5605;DHT22;9297;47.258;11.362;2023-12-20T15:44:26;3.50;97.20
5605;DHT22;9297;47.258;11.362;2023-12-20T15:46:52;3.40;97.50
5605;DHT22;9297;47.258;11.362;2023-12-20T15:49:19;3.50;97.50
5605;DHT22;9297;47.258;11.362;2023-12-20T15:51:46;3.50;97.40
5605;DHT22;9297;47.258;11.362;2023-12-20T15:54:13;3.30;96.90
5605;DHT22;9297;47.258;11.362;2023-12-20T15:56:42;3.20;98.00
5605;DHT22;9297;47.258;11.362;2023-12-20T15:59:09;3.30;98.30
5605;DHT22;9297;47.258;11.362;2023-12-20T16:01:36;3.20;98.80
5605;DHT22;9297;47.258;11.362;2023-12-20T16:04:03;3.30;97.90
5605;DHT22;9297;47.258;11.362;2023-12-20T16:06:30;3.30;97.70
5605;DHT22;9297;47.258;11.362;2023-12-20T16:08:57;3.30;97.80
5605;DHT22;9297;47.258;11.362;2023-12-20T16:11:27;3.20;98.10
5605;DHT22;9297;47.258;11.362;2023-12-20T16:13:56;3.20;98.50
5605;DHT22;9297;47.258;11.362;2023-12-20T16:16:23;3.10;98.50
5605;DHT22;9297;47.258;11.362;2023-12-20T16:18:50;3.20;99.40
5605;DHT22;9297;47.258;11.362;2023-12-20T16:21:17;3.20;98.20
5605;DHT22;9297;47.258;11.362;2023-12-20T16:23:43;3.20;98.40
5605;DHT22;9297;47.258;11.362;2023-12-20T16:26:12;3.20;98.70
5605;DHT22;9297;47.258;11.362;2023-12-20T16:28:39;3.30;98.50
5605;DHT22;9297;47.258;11.362;2023-12-20T16:31:07;3.20;98.90
5605;DHT22;9297;47.258;11.362;2023-12-20T16:33:35;3.20;98.60
5605;DHT22;9297;47.258;11.362;2023-12-20T16:36:02;3.20;98.50
5605;DHT22;9297;47.258;11.362;2023-12-20T16:38:29;3.10;98.30
5605;DHT22;9297;47.258;11.362;2023-12-20T16:40:56;3.00;99.10
5605;DHT22;9297;47.258;11.362;2023-12-20T16:43:23;3.00;99.50
5605;DHT22;9297;47.258;11.362;2023-12-20T16:45:50;3.00;99.70
5605;DHT22;9297;47.258;11.362;2023-12-20T16:48:18;3.00;99.50
5605;DHT22;9297;47.258;11.362;2023-12-20T16:50:45;3.10;99.90
5605;DHT22;9297;47.258;11.362;2023-12-20T16:53:13;3.10;99.50
5605;DHT22;9297;47.258;11.362;2023-12-20T16:55:40;3.10;99.90
5605;DHT22;9297;47.258;11.362;2023-12-20T16:58:07;3.10;99.90
5605;DHT22;9297;47.258;11.362;2023-12-20T17:00:34;3.10;99.90
5605;DHT22;9297;47.258;11.362;2023-12-20T17:03:01;3.00;99.90
5605;DHT22;9297;47.258;11.362;2023-12-20T17:05:29;3.00;99.90
5605;DHT22;9297;47.258;11.362;2023-12-20T17:07:57;3.00;99.80
5605;DHT22;9297;47.258;11.362;2023-12-20T17:10:24;3.00;99.70
5605;DHT22;9297;47.258;11.362;2023-12-20T17:12:51;3.00;99.60
5605;DHT22;9297;47.258;11.362;2023-12-20T17:15:17;3.00;99.90
5605;DHT22;9297;47.258;11.362;2023-12-20T17:17:44;3.00;99.70
5605;DHT22;9297;47.258;11.362;2023-12-20T17:20:13;2.70;99.90
5605;DHT22;9297;47.258;11.362;2023-12-20T17:22:41;2.70;99.90
5605;DHT22;9297;47.258;11.362;2023-12-20T17:25:08;2.70;99.90
5605;DHT22;9297;47.258;11.362;2023-12-20T17:27:35;2.70;99.90
5605;DHT22;9297;47.258;11.362;2023-12-20T17:30:02;2.70;99.90
5605;DHT22;9297;47.258;11.362;2023-12-20T17:32:30;2.70;99.90
5605;DHT22;9297;47.258;11.362;2023-12-20T17:34:57;2.60;99.80
5605;DHT22;9297;47.258;11.362;2023-12-20T17:37:24;2.70;99.90
5605;DHT22;9297;47.258;11.362;2023-12-20T17:39:53;2.70;99.90
5605;DHT22;9297;47.258;11.362;2023-12-20T17:42:20;2.70;99.90
5605;DHT22;9297;47.258;11.362;2023-12-20T17:44:47;2.60;99.90
5605;DHT22;9297;47.258;11.362;2023-12-20T17:47:14;2.60;99.90
5605;DHT22;9297;47.258;11.362;2023-12-20T17:49:44;2.60;99.90
5605;DHT22;9297;47.258;11.362;2023-12-20T17:52:11;2.60;99.90
5605;DHT22;9297;47.258;11.362;2023-12-20T17:54:38;2.40;99.90
5605;DHT22;9297;47.258;11.362;2023-12-20T17:57:06;2.40;99.90
5605;DHT22;9297;47.258;11.362;2023-12-20T17:59:33;2.40;99.90
5605;DHT22;9297;47.258;11.362;2023-12-20T18:02:00;2.40;99.90
5605;DHT22;9297;47.258;11.362;2023-12-20T18:04:27;2.50;99.90
5605;DHT22;9297;47.258;11.362;2023-12-20T18:06:54;2.40;99.90
5605;DHT22;9297;47.258;11.362;2023-12-20T18:09:21;2.40;99.90
5605;DHT22;9297;47.258;11.362;2023-12-20T18:11:48;2.40;99.90
5605;DHT22;9297;47.258;11.362;2023-12-20T18:14:17;2.50;99.90
5605;DHT22;9297;47.258;11.362;2023-12-20T18:16:44;2.50;99.90
5605;DHT22;9297;47.258;11.362;2023-12-20T18:19:11;2.50;99.90
5605;DHT22;9297;47.258;11.362;2023-12-20T18:21:40;2.50;99.90
5605;DHT22;9297;47.258;11.362;2023-12-20T18:24:07;2.50;99.90
5605;DHT22;9297;47.258;11.362;2023-12-20T18:26:37;2.50;99.90
5605;DHT22;9297;47.258;11.362;2023-12-20T18:29:04;2.60;99.90
5605;DHT22;9297;47.258;11.362;2023-12-20T18:31:33;2.50;99.90
5605;DHT22;9297;47.258;11.362;2023-12-20T18:34:00;2.50;99.90